Anthon, Iowa
Current Conditions -  °F | °C
As of 6:52 AM on Tuesday 21 Oct 2014 (Local Time) from KSUX Reporting Station
Clear Clear  
Wind Chill: 37°   Ceiling: Unl
Heat Index: 37°   Visibility: 10mi
Dew Point: 35°   Wind: 3mph
Humidity: 93%   Direction: 130°SE
Pressure: 30.11"   Gusts: NA
Location:  42.39°N, 95.87°W
Report Text: KSUX 211152Z 13003KT 10SM CLR 03/02 A3011 RMK AO2 SLP201 T00280017 10050 20017 51007
Loading
Personal Weather Stations






























Interactive Weather Map
Tropical Storm Tracking
New forecast layout! Learn more

10-Day Weather Forecast

Advertisements
Track Severe Weather on mobile